Aviation Digital Data Service (ADDS)

Output produced by TAFs form (1339 UTC 26 August 2016)
found at http://www.aviationweather.gov/adds/tafs/
 
KABE 261329Z 2613/2712 VRB03KT P6SM BKN100 
     FM261400 31008KT P6SM FEW050 
     FM262300 34005KT P6SM SCT250 
     FM270200 VRB03KT P6SM SKC